sensor_id;sensor_type;location;lat;lon;timestamp;temperature;humidity
51029;DHT22;37054;52.054;8.600;2022-12-29T00:01:57;16.30;64.40
51029;DHT22;37054;52.054;8.600;2022-12-29T00:04:23;16.20;64.20
51029;DHT22;37054;52.054;8.600;2022-12-29T00:06:48;16.20;64.40
51029;DHT22;37054;52.054;8.600;2022-12-29T00:09:15;16.20;64.50
51029;DHT22;37054;52.054;8.600;2022-12-29T00:11:41;16.20;64.50
51029;DHT22;37054;52.054;8.600;2022-12-29T00:14:08;16.20;64.40
51029;DHT22;37054;52.054;8.600;2022-12-29T00:16:52;16.20;64.80
51029;DHT22;37054;52.054;8.600;2022-12-29T00:19:18;16.00;65.00
51029;DHT22;37054;52.054;8.600;2022-12-29T00:22:02;16.20;64.80
51029;DHT22;37054;52.054;8.600;2022-12-29T00:24:49;16.20;64.80
51029;DHT22;37054;52.054;8.600;2022-12-29T00:27:31;16.20;64.80
51029;DHT22;37054;52.054;8.600;2022-12-29T00:30:17;16.00;65.20
51029;DHT22;37054;52.054;8.600;2022-12-29T00:33:35;16.20;64.90
51029;DHT22;37054;52.054;8.600;2022-12-29T00:36:15;16.20;65.00
51029;DHT22;37054;52.054;8.600;2022-12-29T00:38:42;16.10;65.30
51029;DHT22;37054;52.054;8.600;2022-12-29T00:41:29;16.10;65.10
51029;DHT22;37054;52.054;8.600;2022-12-29T00:44:13;16.10;65.00
51029;DHT22;37054;52.054;8.600;2022-12-29T00:46:40;16.20;65.10
51029;DHT22;37054;52.054;8.600;2022-12-29T00:49:06;16.20;65.00
51029;DHT22;37054;52.054;8.600;2022-12-29T00:51:50;16.10;64.90
51029;DHT22;37054;52.054;8.600;2022-12-29T00:54:16;16.20;64.90
51029;DHT22;37054;52.054;8.600;2022-12-29T00:56:41;16.20;64.90
51029;DHT22;37054;52.054;8.600;2022-12-29T00:59:09;16.20;65.00
51029;DHT22;37054;52.054;8.600;2022-12-29T01:01:35;16.20;64.60
51029;DHT22;37054;52.054;8.600;2022-12-29T01:04:00;16.20;65.00
51029;DHT22;37054;52.054;8.600;2022-12-29T01:06:26;16.30;64.60
51029;DHT22;37054;52.054;8.600;2022-12-29T01:08:51;16.30;64.60
51029;DHT22;37054;52.054;8.600;2022-12-29T01:11:37;16.30;64.20
51029;DHT22;37054;52.054;8.600;2022-12-29T01:14:03;16.10;64.60
51029;DHT22;37054;52.054;8.600;2022-12-29T01:16:28;16.20;64.40
51029;DHT22;37054;52.054;8.600;2022-12-29T01:18:54;16.10;64.20
51029;DHT22;37054;52.054;8.600;2022-12-29T01:21:20;16.00;64.70
51029;DHT22;37054;52.054;8.600;2022-12-29T01:23:45;15.80;65.20
51029;DHT22;37054;52.054;8.600;2022-12-29T01:26:11;15.80;64.90
51029;DHT22;37054;52.054;8.600;2022-12-29T01:28:37;16.00;64.70
51029;DHT22;37054;52.054;8.600;2022-12-29T01:31:05;15.90;64.60
51029;DHT22;37054;52.054;8.600;2022-12-29T01:33:31;16.00;65.00
51029;DHT22;37054;52.054;8.600;2022-12-29T01:36:00;15.90;65.00
51029;DHT22;37054;52.054;8.600;2022-12-29T01:38:25;16.00;65.00
51029;DHT22;37054;52.054;8.600;2022-12-29T01:40:51;16.10;65.00
51029;DHT22;37054;52.054;8.600;2022-12-29T01:43:16;16.00;64.50
51029;DHT22;37054;52.054;8.600;2022-12-29T01:45:49;15.90;65.20
51029;DHT22;37054;52.054;8.600;2022-12-29T01:48:15;16.00;65.20
51029;DHT22;37054;52.054;8.600;2022-12-29T01:50:46;15.90;65.30
51029;DHT22;37054;52.054;8.600;2022-12-29T01:53:18;16.10;65.50
51029;DHT22;37054;52.054;8.600;2022-12-29T01:55:50;16.10;65.20
51029;DHT22;37054;52.054;8.600;2022-12-29T01:58:17;16.10;65.30
51029;DHT22;37054;52.054;8.600;2022-12-29T02:00:45;16.10;65.30
51029;DHT22;37054;52.054;8.600;2022-12-29T02:03:10;16.10;65.30
51029;DHT22;37054;52.054;8.600;2022-12-29T02:05:50;16.20;65.50
51029;DHT22;37054;52.054;8.600;2022-12-29T02:08:16;16.10;65.60
51029;DHT22;37054;52.054;8.600;2022-12-29T02:10:42;16.10;65.20
51029;DHT22;37054;52.054;8.600;2022-12-29T02:13:08;16.00;65.10
51029;DHT22;37054;52.054;8.600;2022-12-29T02:18:15;15.90;65.10
51029;DHT22;37054;52.054;8.600;2022-12-29T02:28:26;15.70;66.00
51029;DHT22;37054;52.054;8.600;2022-12-29T02:31:04;15.60;66.50
51029;DHT22;37054;52.054;8.600;2022-12-29T02:41:32;15.70;66.50
51029;DHT22;37054;52.054;8.600;2022-12-29T02:46:28;15.80;66.40
51029;DHT22;37054;52.054;8.600;2022-12-29T02:51:34;15.70;66.40
51029;DHT22;37054;52.054;8.600;2022-12-29T02:54:01;15.80;66.30
51029;DHT22;37054;52.054;8.600;2022-12-29T02:56:45;15.70;66.40
51029;DHT22;37054;52.054;8.600;2022-12-29T02:59:10;15.70;66.50
51029;DHT22;37054;52.054;8.600;2022-12-29T03:01:45;15.80;66.60
51029;DHT22;37054;52.054;8.600;2022-12-29T03:04:47;15.80;66.50
51029;DHT22;37054;52.054;8.600;2022-12-29T03:07:23;16.00;66.00
51029;DHT22;37054;52.054;8.600;2022-12-29T03:09:56;16.00;66.20
51029;DHT22;37054;52.054;8.600;2022-12-29T03:12:29;16.10;65.90
51029;DHT22;37054;52.054;8.600;2022-12-29T03:15:18;16.10;66.30
51029;DHT22;37054;52.054;8.600;2022-12-29T03:18:12;16.10;66.10
51029;DHT22;37054;52.054;8.600;2022-12-29T03:20:49;16.20;65.90
51029;DHT22;37054;52.054;8.600;2022-12-29T03:23:15;16.30;66.00
51029;DHT22;37054;52.054;8.600;2022-12-29T03:25:46;16.40;65.60
51029;DHT22;37054;52.054;8.600;2022-12-29T03:28:13;16.40;65.40
51029;DHT22;37054;52.054;8.600;2022-12-29T03:30:41;16.60;65.30
51029;DHT22;37054;52.054;8.600;2022-12-29T03:33:07;16.70;65.00
51029;DHT22;37054;52.054;8.600;2022-12-29T03:35:35;16.70;64.60
51029;DHT22;37054;52.054;8.600;2022-12-29T03:38:12;16.50;64.80
51029;DHT22;37054;52.054;8.600;2022-12-29T03:40:39;16.60;65.00
51029;DHT22;37054;52.054;8.600;2022-12-29T03:43:06;16.70;64.70
51029;DHT22;37054;52.054;8.600;2022-12-29T03:45:32;16.80;64.80
51029;DHT22;37054;52.054;8.600;2022-12-29T03:47:57;16.80;64.50
51029;DHT22;37054;52.054;8.600;2022-12-29T03:50:23;16.70;64.40
51029;DHT22;37054;52.054;8.600;2022-12-29T03:52:48;16.80;64.40
51029;DHT22;37054;52.054;8.600;2022-12-29T03:55:14;16.80;64.00
51029;DHT22;37054;52.054;8.600;2022-12-29T03:57:39;16.90;64.00
51029;DHT22;37054;52.054;8.600;2022-12-29T04:00:05;16.80;63.70
51029;DHT22;37054;52.054;8.600;2022-12-29T04:02:31;16.90;64.00
51029;DHT22;37054;52.054;8.600;2022-12-29T04:04:56;16.90;64.30
51029;DHT22;37054;52.054;8.600;2022-12-29T04:07:21;16.80;64.10
51029;DHT22;37054;52.054;8.600;2022-12-29T04:09:47;16.80;63.70
51029;DHT22;37054;52.054;8.600;2022-12-29T04:12:12;16.90;64.40
51029;DHT22;37054;52.054;8.600;2022-12-29T04:14:39;17.00;64.20
51029;DHT22;37054;52.054;8.600;2022-12-29T04:17:05;17.00;63.90
51029;DHT22;37054;52.054;8.600;2022-12-29T04:19:30;17.00;63.70
51029;DHT22;37054;52.054;8.600;2022-12-29T04:21:56;17.10;63.80
51029;DHT22;37054;52.054;8.600;2022-12-29T04:24:21;17.10;63.80
51029;DHT22;37054;52.054;8.600;2022-12-29T04:26:47;17.10;63.90
51029;DHT22;37054;52.054;8.600;2022-12-29T04:29:12;17.10;63.30
51029;DHT22;37054;52.054;8.600;2022-12-29T04:31:37;17.10;63.00
51029;DHT22;37054;52.054;8.600;2022-12-29T04:34:03;17.00;62.50
51029;DHT22;37054;52.054;8.600;2022-12-29T04:36:28;17.00;63.50
51029;DHT22;37054;52.054;8.600;2022-12-29T04:38:54;17.00;63.80
51029;DHT22;37054;52.054;8.600;2022-12-29T04:41:19;17.00;63.60
51029;DHT22;37054;52.054;8.600;2022-12-29T04:43:45;16.80;62.90
51029;DHT22;37054;52.054;8.600;2022-12-29T04:46:10;16.90;63.30
51029;DHT22;37054;52.054;8.600;2022-12-29T04:48:35;16.80;63.40
51029;DHT22;37054;52.054;8.600;2022-12-29T04:51:01;16.80;63.30
51029;DHT22;37054;52.054;8.600;2022-12-29T04:53:26;16.60;63.40
51029;DHT22;37054;52.054;8.600;2022-12-29T04:55:52;16.50;63.70
51029;DHT22;37054;52.054;8.600;2022-12-29T04:58:18;16.40;63.80
51029;DHT22;37054;52.054;8.600;2022-12-29T05:00:44;16.30;64.10
51029;DHT22;37054;52.054;8.600;2022-12-29T05:03:10;16.40;64.10
51029;DHT22;37054;52.054;8.600;2022-12-29T05:05:35;16.30;64.30
51029;DHT22;37054;52.054;8.600;2022-12-29T05:08:00;16.10;64.40
51029;DHT22;37054;52.054;8.600;2022-12-29T05:10:26;16.00;64.70
51029;DHT22;37054;52.054;8.600;2022-12-29T05:12:51;16.00;64.90
51029;DHT22;37054;52.054;8.600;2022-12-29T05:15:17;16.00;64.90
51029;DHT22;37054;52.054;8.600;2022-12-29T05:17:42;16.00;65.20
51029;DHT22;37054;52.054;8.600;2022-12-29T05:20:08;16.00;65.20
51029;DHT22;37054;52.054;8.600;2022-12-29T05:22:34;16.00;65.40
51029;DHT22;37054;52.054;8.600;2022-12-29T05:24:59;16.10;65.30
51029;DHT22;37054;52.054;8.600;2022-12-29T05:27:25;16.10;65.00
51029;DHT22;37054;52.054;8.600;2022-12-29T05:29:50;16.20;65.20
51029;DHT22;37054;52.054;8.600;2022-12-29T05:32:15;16.30;65.10
51029;DHT22;37054;52.054;8.600;2022-12-29T05:34:41;16.20;64.90
51029;DHT22;37054;52.054;8.600;2022-12-29T05:37:06;16.10;64.70
51029;DHT22;37054;52.054;8.600;2022-12-29T05:39:32;16.10;64.80
51029;DHT22;37054;52.054;8.600;2022-12-29T05:41:57;16.10;65.10
51029;DHT22;37054;52.054;8.600;2022-12-29T05:44:23;16.00;64.90
51029;DHT22;37054;52.054;8.600;2022-12-29T05:46:48;16.00;65.30
51029;DHT22;37054;52.054;8.600;2022-12-29T05:49:14;16.00;65.20
51029;DHT22;37054;52.054;8.600;2022-12-29T05:51:39;15.70;65.60
51029;DHT22;37054;52.054;8.600;2022-12-29T05:54:05;15.90;65.30
51029;DHT22;37054;52.054;8.600;2022-12-29T05:56:30;16.00;65.60
51029;DHT22;37054;52.054;8.600;2022-12-29T05:58:55;16.10;65.20
51029;DHT22;37054;52.054;8.600;2022-12-29T06:01:21;16.10;65.20
51029;DHT22;37054;52.054;8.600;2022-12-29T06:03:47;16.20;65.10
51029;DHT22;37054;52.054;8.600;2022-12-29T06:06:12;16.20;64.90
51029;DHT22;37054;52.054;8.600;2022-12-29T06:08:38;16.30;64.40
51029;DHT22;37054;52.054;8.600;2022-12-29T06:11:03;16.30;65.20
51029;DHT22;37054;52.054;8.600;2022-12-29T06:13:29;16.40;64.60
51029;DHT22;37054;52.054;8.600;2022-12-29T06:15:54;16.60;64.60
51029;DHT22;37054;52.054;8.600;2022-12-29T06:18:19;16.50;64.60
51029;DHT22;37054;52.054;8.600;2022-12-29T06:20:45;16.70;64.60
51029;DHT22;37054;52.054;8.600;2022-12-29T06:23:10;16.80;64.50
51029;DHT22;37054;52.054;8.600;2022-12-29T06:25:38;16.80;64.20
51029;DHT22;37054;52.054;8.600;2022-12-29T06:28:03;16.80;64.30
51029;DHT22;37054;52.054;8.600;2022-12-29T06:30:30;17.00;64.10
51029;DHT22;37054;52.054;8.600;2022-12-29T06:32:56;16.90;63.80
51029;DHT22;37054;52.054;8.600;2022-12-29T06:35:21;16.70;63.40
51029;DHT22;37054;52.054;8.600;2022-12-29T06:37:49;16.40;63.10
51029;DHT22;37054;52.054;8.600;2022-12-29T06:40:15;16.30;63.20
51029;DHT22;37054;52.054;8.600;2022-12-29T06:42:40;16.00;63.40
51029;DHT22;37054;52.054;8.600;2022-12-29T06:45:06;15.90;63.70
51029;DHT22;37054;52.054;8.600;2022-12-29T06:47:33;15.80;64.00
51029;DHT22;37054;52.054;8.600;2022-12-29T06:49:58;15.70;64.00
51029;DHT22;37054;52.054;8.600;2022-12-29T06:52:24;15.70;64.10
51029;DHT22;37054;52.054;8.600;2022-12-29T06:54:49;15.60;64.20
51029;DHT22;37054;52.054;8.600;2022-12-29T06:57:15;15.40;64.20
51029;DHT22;37054;52.054;8.600;2022-12-29T06:59:40;15.40;64.10
51029;DHT22;37054;52.054;8.600;2022-12-29T07:02:06;15.30;64.10
51029;DHT22;37054;52.054;8.600;2022-12-29T07:04:31;15.20;64.20
51029;DHT22;37054;52.054;8.600;2022-12-29T07:06:57;15.20;64.30
51029;DHT22;37054;52.054;8.600;2022-12-29T07:09:22;15.10;64.40
51029;DHT22;37054;52.054;8.600;2022-12-29T07:11:48;15.00;64.20
51029;DHT22;37054;52.054;8.600;2022-12-29T07:14:13;15.00;64.40
51029;DHT22;37054;52.054;8.600;2022-12-29T07:16:39;14.90;64.50
51029;DHT22;37054;52.054;8.600;2022-12-29T07:19:05;14.90;64.60
51029;DHT22;37054;52.054;8.600;2022-12-29T07:21:31;14.80;64.50
51029;DHT22;37054;52.054;8.600;2022-12-29T07:23:56;14.80;64.50
51029;DHT22;37054;52.054;8.600;2022-12-29T07:26:21;14.70;64.90
51029;DHT22;37054;52.054;8.600;2022-12-29T07:28:47;14.70;64.90
51029;DHT22;37054;52.054;8.600;2022-12-29T07:31:20;14.70;64.90
51029;DHT22;37054;52.054;8.600;2022-12-29T07:33:46;14.80;64.90
51029;DHT22;37054;52.054;8.600;2022-12-29T07:36:12;14.70;65.30
51029;DHT22;37054;52.054;8.600;2022-12-29T07:38:37;14.80;65.00
51029;DHT22;37054;52.054;8.600;2022-12-29T07:41:03;14.80;64.90
51029;DHT22;37054;52.054;8.600;2022-12-29T07:43:28;14.80;65.10
51029;DHT22;37054;52.054;8.600;2022-12-29T07:45:54;14.90;64.80
51029;DHT22;37054;52.054;8.600;2022-12-29T07:48:19;14.90;64.70
51029;DHT22;37054;52.054;8.600;2022-12-29T07:50:45;14.90;64.50
51029;DHT22;37054;52.054;8.600;2022-12-29T07:53:10;14.90;64.60
51029;DHT22;37054;52.054;8.600;2022-12-29T07:55:36;15.00;64.50
51029;DHT22;37054;52.054;8.600;2022-12-29T07:58:01;15.00;64.20
51029;DHT22;37054;52.054;8.600;2022-12-29T08:00:26;15.00;64.70
51029;DHT22;37054;52.054;8.600;2022-12-29T08:02:52;15.00;64.40
51029;DHT22;37054;52.054;8.600;2022-12-29T08:05:17;15.00;64.40
51029;DHT22;37054;52.054;8.600;2022-12-29T08:07:44;15.00;64.40
51029;DHT22;37054;52.054;8.600;2022-12-29T08:10:10;15.10;64.40
51029;DHT22;37054;52.054;8.600;2022-12-29T08:12:37;15.10;64.40
51029;DHT22;37054;52.054;8.600;2022-12-29T08:15:02;15.10;64.30
51029;DHT22;37054;52.054;8.600;2022-12-29T08:17:28;15.00;63.80
51029;DHT22;37054;52.054;8.600;2022-12-29T08:19:53;15.00;63.90
51029;DHT22;37054;52.054;8.600;2022-12-29T08:22:27;15.00;64.00
51029;DHT22;37054;52.054;8.600;2022-12-29T08:24:52;15.00;64.20
51029;DHT22;37054;52.054;8.600;2022-12-29T08:27:18;15.00;64.20
51029;DHT22;37054;52.054;8.600;2022-12-29T08:29:43;15.10;64.20
51029;DHT22;37054;52.054;8.600;2022-12-29T08:32:09;15.00;64.40
51029;DHT22;37054;52.054;8.600;2022-12-29T08:34:34;15.00;64.30
51029;DHT22;37054;52.054;8.600;2022-12-29T08:37:00;15.10;64.60
51029;DHT22;37054;52.054;8.600;2022-12-29T08:39:25;15.10;64.70
51029;DHT22;37054;52.054;8.600;2022-12-29T08:41:51;15.20;64.90
51029;DHT22;37054;52.054;8.600;2022-12-29T08:44:19;15.30;65.10
51029;DHT22;37054;52.054;8.600;2022-12-29T08:46:44;15.40;65.10
51029;DHT22;37054;52.054;8.600;2022-12-29T08:49:10;15.50;65.10
51029;DHT22;37054;52.054;8.600;2022-12-29T08:51:35;15.60;65.30
51029;DHT22;37054;52.054;8.600;2022-12-29T08:54:01;15.60;64.50
51029;DHT22;37054;52.054;8.600;2022-12-29T08:56:26;15.50;64.50
51029;DHT22;37054;52.054;8.600;2022-12-29T08:58:52;15.40;64.60
51029;DHT22;37054;52.054;8.600;2022-12-29T09:01:18;15.30;64.50
51029;DHT22;37054;52.054;8.600;2022-12-29T09:03:44;15.30;64.50
51029;DHT22;37054;52.054;8.600;2022-12-29T09:06:10;15.20;64.80
51029;DHT22;37054;52.054;8.600;2022-12-29T09:08:35;15.20;65.00
51029;DHT22;37054;52.054;8.600;2022-12-29T09:11:11;15.30;65.20
51029;DHT22;37054;52.054;8.600;2022-12-29T09:13:37;15.30;65.40
51029;DHT22;37054;52.054;8.600;2022-12-29T09:16:03;15.40;65.30
51029;DHT22;37054;52.054;8.600;2022-12-29T09:18:29;15.40;65.00
51029;DHT22;37054;52.054;8.600;2022-12-29T09:20:58;15.30;64.80
51029;DHT22;37054;52.054;8.600;2022-12-29T09:23:23;15.30;64.50
51029;DHT22;37054;52.054;8.600;2022-12-29T09:25:49;15.40;65.30
51029;DHT22;37054;52.054;8.600;2022-12-29T09:28:14;15.60;65.90
51029;DHT22;37054;52.054;8.600;2022-12-29T09:30:41;15.80;66.40
51029;DHT22;37054;52.054;8.600;2022-12-29T09:33:06;16.00;66.50
51029;DHT22;37054;52.054;8.600;2022-12-29T09:35:32;16.30;66.30
51029;DHT22;37054;52.054;8.600;2022-12-29T09:37:57;16.50;65.90
51029;DHT22;37054;52.054;8.600;2022-12-29T09:40:27;16.60;65.60
51029;DHT22;37054;52.054;8.600;2022-12-29T09:45:32;16.80;65.50
51029;DHT22;37054;52.054;8.600;2022-12-29T09:47:59;16.90;65.50
51029;DHT22;37054;52.054;8.600;2022-12-29T09:50:32;17.00;65.00
51029;DHT22;37054;52.054;8.600;2022-12-29T09:55:36;16.90;64.40
51029;DHT22;37054;52.054;8.600;2022-12-29T09:58:04;16.80;64.00
51029;DHT22;37054;52.054;8.600;2022-12-29T10:00:38;16.70;63.90
51029;DHT22;37054;52.054;8.600;2022-12-29T10:03:06;16.70;63.80
51029;DHT22;37054;52.054;8.600;2022-12-29T10:05:39;16.60;63.70
51029;DHT22;37054;52.054;8.600;2022-12-29T10:10:35;16.60;64.10
51029;DHT22;37054;52.054;8.600;2022-12-29T10:21:02;16.60;63.50
51029;DHT22;37054;52.054;8.600;2022-12-29T10:23:32;16.70;64.10
51029;DHT22;37054;52.054;8.600;2022-12-29T10:25:59;16.80;64.30
51029;DHT22;37054;52.054;8.600;2022-12-29T10:28:43;17.10;64.70
51029;DHT22;37054;52.054;8.600;2022-12-29T10:31:11;17.30;64.90
51029;DHT22;37054;52.054;8.600;2022-12-29T10:33:40;17.60;65.10
51029;DHT22;37054;52.054;8.600;2022-12-29T10:36:21;17.80;64.80
51029;DHT22;37054;52.054;8.600;2022-12-29T10:39:03;18.00;65.10
51029;DHT22;37054;52.054;8.600;2022-12-29T10:41:38;18.50;65.40
51029;DHT22;37054;52.054;8.600;2022-12-29T10:44:07;18.70;64.70
51029;DHT22;37054;52.054;8.600;2022-12-29T10:46:34;19.10;64.60
51029;DHT22;37054;52.054;8.600;2022-12-29T10:49:00;19.20;62.80
51029;DHT22;37054;52.054;8.600;2022-12-29T10:51:31;19.10;62.30
51029;DHT22;37054;52.054;8.600;2022-12-29T10:53:59;19.00;61.90
51029;DHT22;37054;52.054;8.600;2022-12-29T10:58:55;18.80;62.10
51029;DHT22;37054;52.054;8.600;2022-12-29T11:01:22;18.70;61.20
51029;DHT22;37054;52.054;8.600;2022-12-29T11:04:03;18.50;61.40
51029;DHT22;37054;52.054;8.600;2022-12-29T11:06:31;18.40;62.00
51029;DHT22;37054;52.054;8.600;2022-12-29T11:09:02;18.30;61.20
51029;DHT22;37054;52.054;8.600;2022-12-29T11:11:33;18.20;61.60
51029;DHT22;37054;52.054;8.600;2022-12-29T11:14:10;18.10;61.40
51029;DHT22;37054;52.054;8.600;2022-12-29T11:16:36;18.00;61.20
51029;DHT22;37054;52.054;8.600;2022-12-29T11:19:02;18.00;61.60
51029;DHT22;37054;52.054;8.600;2022-12-29T11:21:32;17.90;61.40
51029;DHT22;37054;52.054;8.600;2022-12-29T11:24:05;17.80;61.50
51029;DHT22;37054;52.054;8.600;2022-12-29T11:26:31;17.80;61.60
51029;DHT22;37054;52.054;8.600;2022-12-29T11:31:48;17.70;61.90
51029;DHT22;37054;52.054;8.600;2022-12-29T11:34:21;17.50;61.40
51029;DHT22;37054;52.054;8.600;2022-12-29T11:36:47;17.50;61.40
51029;DHT22;37054;52.054;8.600;2022-12-29T11:39:24;17.50;61.70
51029;DHT22;37054;52.054;8.600;2022-12-29T11:41:51;17.40;61.80
51029;DHT22;37054;52.054;8.600;2022-12-29T11:44:17;17.30;62.10
51029;DHT22;37054;52.054;8.600;2022-12-29T11:46:44;17.30;61.90
51029;DHT22;37054;52.054;8.600;2022-12-29T11:49:12;17.30;61.80
51029;DHT22;37054;52.054;8.600;2022-12-29T11:51:43;17.20;62.10
51029;DHT22;37054;52.054;8.600;2022-12-29T11:54:11;17.30;62.30
51029;DHT22;37054;52.054;8.600;2022-12-29T11:56:40;17.30;62.60
51029;DHT22;37054;52.054;8.600;2022-12-29T11:59:34;17.30;62.20
51029;DHT22;37054;52.054;8.600;2022-12-29T12:02:00;17.40;62.30
51029;DHT22;37054;52.054;8.600;2022-12-29T12:04:30;17.30;62.10
51029;DHT22;37054;52.054;8.600;2022-12-29T12:07:02;17.40;62.50
51029;DHT22;37054;52.054;8.600;2022-12-29T12:09:37;17.40;61.90
51029;DHT22;37054;52.054;8.600;2022-12-29T12:12:05;17.40;62.10
51029;DHT22;37054;52.054;8.600;2022-12-29T12:14:35;17.50;62.50
51029;DHT22;37054;52.054;8.600;2022-12-29T12:17:02;17.50;61.70
51029;DHT22;37054;52.054;8.600;2022-12-29T12:21:56;17.50;61.80
51029;DHT22;37054;52.054;8.600;2022-12-29T12:24:31;17.50;61.80
51029;DHT22;37054;52.054;8.600;2022-12-29T12:29:58;17.50;61.80
51029;DHT22;37054;52.054;8.600;2022-12-29T12:32:27;17.40;60.30
51029;DHT22;37054;52.054;8.600;2022-12-29T12:34:57;17.40;61.40
51029;DHT22;37054;52.054;8.600;2022-12-29T12:42:42;17.60;61.50
51029;DHT22;37054;52.054;8.600;2022-12-29T12:50:46;17.60;60.50
51029;DHT22;37054;52.054;8.600;2022-12-29T12:55:55;17.50;60.70
51029;DHT22;37054;52.054;8.600;2022-12-29T12:58:43;17.60;60.30
51029;DHT22;37054;52.054;8.600;2022-12-29T13:03:45;17.60;60.40
51029;DHT22;37054;52.054;8.600;2022-12-29T13:06:16;17.60;61.30
51029;DHT22;37054;52.054;8.600;2022-12-29T13:24:00;17.70;61.20
51029;DHT22;37054;52.054;8.600;2022-12-29T13:26:39;17.70;60.50
51029;DHT22;37054;52.054;8.600;2022-12-29T13:29:19;17.70;59.40
51029;DHT22;37054;52.054;8.600;2022-12-29T13:31:58;17.70;60.00
51029;DHT22;37054;52.054;8.600;2022-12-29T13:37:03;17.60;59.90
51029;DHT22;37054;52.054;8.600;2022-12-29T13:39:37;17.60;60.40
51029;DHT22;37054;52.054;8.600;2022-12-29T13:42:04;17.50;58.80
51029;DHT22;37054;52.054;8.600;2022-12-29T13:44:45;17.60;60.00
51029;DHT22;37054;52.054;8.600;2022-12-29T13:49:40;17.50;59.50
51029;DHT22;37054;52.054;8.600;2022-12-29T13:54:45;17.50;60.30
51029;DHT22;37054;52.054;8.600;2022-12-29T13:57:30;17.50;59.30
51029;DHT22;37054;52.054;8.600;2022-12-29T14:00:03;17.40;60.30
51029;DHT22;37054;52.054;8.600;2022-12-29T14:02:37;17.50;60.70
51029;DHT22;37054;52.054;8.600;2022-12-29T14:07:45;17.30;60.00
51029;DHT22;37054;52.054;8.600;2022-12-29T14:13:05;17.30;60.50
51029;DHT22;37054;52.054;8.600;2022-12-29T14:15:31;17.30;60.40
51029;DHT22;37054;52.054;8.600;2022-12-29T14:18:04;17.30;59.60
51029;DHT22;37054;52.054;8.600;2022-12-29T14:20:31;17.30;59.90
51029;DHT22;37054;52.054;8.600;2022-12-29T14:28:19;17.30;59.60
51029;DHT22;37054;52.054;8.600;2022-12-29T14:30:52;17.30;59.40
51029;DHT22;37054;52.054;8.600;2022-12-29T14:33:19;17.30;59.30
51029;DHT22;37054;52.054;8.600;2022-12-29T14:35:45;17.20;59.20
51029;DHT22;37054;52.054;8.600;2022-12-29T14:38:22;17.30;59.10
51029;DHT22;37054;52.054;8.600;2022-12-29T14:40:48;17.20;59.70
51029;DHT22;37054;52.054;8.600;2022-12-29T14:43:19;17.10;59.50
51029;DHT22;37054;52.054;8.600;2022-12-29T14:45:48;17.00;59.60
51029;DHT22;37054;52.054;8.600;2022-12-29T14:48:21;17.00;59.30
51029;DHT22;37054;52.054;8.600;2022-12-29T14:50:47;16.90;59.70
51029;DHT22;37054;52.054;8.600;2022-12-29T14:55:57;16.90;60.00
51029;DHT22;37054;52.054;8.600;2022-12-29T14:58:34;16.90;60.10
51029;DHT22;37054;52.054;8.600;2022-12-29T15:01:01;16.90;59.90
51029;DHT22;37054;52.054;8.600;2022-12-29T15:03:32;16.80;59.50
51029;DHT22;37054;52.054;8.600;2022-12-29T15:08:31;16.90;59.90
51029;DHT22;37054;52.054;8.600;2022-12-29T15:11:01;16.80;59.60
51029;DHT22;37054;52.054;8.600;2022-12-29T15:13:34;16.80;59.80
51029;DHT22;37054;52.054;8.600;2022-12-29T15:16:00;16.80;60.00
51029;DHT22;37054;52.054;8.600;2022-12-29T15:18:27;16.70;59.50
51029;DHT22;37054;52.054;8.600;2022-12-29T15:20:55;16.70;60.50
51029;DHT22;37054;52.054;8.600;2022-12-29T15:23:21;16.70;60.30
51029;DHT22;37054;52.054;8.600;2022-12-29T15:25:52;16.80;60.30
51029;DHT22;37054;52.054;8.600;2022-12-29T15:28:20;16.80;60.20
51029;DHT22;37054;52.054;8.600;2022-12-29T15:30:52;16.70;60.60
51029;DHT22;37054;52.054;8.600;2022-12-29T15:33:19;16.80;60.50
51029;DHT22;37054;52.054;8.600;2022-12-29T15:35:49;16.80;60.20
51029;DHT22;37054;52.054;8.600;2022-12-29T15:38:19;16.80;60.40
51029;DHT22;37054;52.054;8.600;2022-12-29T15:40:45;16.80;60.70
51029;DHT22;37054;52.054;8.600;2022-12-29T15:45:55;16.70;60.00
51029;DHT22;37054;52.054;8.600;2022-12-29T15:48:22;16.70;60.10
51029;DHT22;37054;52.054;8.600;2022-12-29T15:50:48;16.70;60.00
51029;DHT22;37054;52.054;8.600;2022-12-29T15:53:18;16.70;60.50
51029;DHT22;37054;52.054;8.600;2022-12-29T15:55:43;16.70;60.40
51029;DHT22;37054;52.054;8.600;2022-12-29T15:58:30;16.70;60.20
51029;DHT22;37054;52.054;8.600;2022-12-29T16:00:57;16.70;60.10
51029;DHT22;37054;52.054;8.600;2022-12-29T16:03:27;16.70;59.60
51029;DHT22;37054;52.054;8.600;2022-12-29T16:05:55;16.70;60.10
51029;DHT22;37054;52.054;8.600;2022-12-29T16:10:46;16.60;59.10
51029;DHT22;37054;52.054;8.600;2022-12-29T16:15:50;16.50;58.90
51029;DHT22;37054;52.054;8.600;2022-12-29T16:18:24;16.50;59.50
51029;DHT22;37054;52.054;8.600;2022-12-29T16:20:51;16.50;59.20
51029;DHT22;37054;52.054;8.600;2022-12-29T16:23:18;16.50;59.10
51029;DHT22;37054;52.054;8.600;2022-12-29T16:25:45;16.50;59.10
51029;DHT22;37054;52.054;8.600;2022-12-29T16:28:34;16.50;59.30
51029;DHT22;37054;52.054;8.600;2022-12-29T16:31:03;16.50;59.20
51029;DHT22;37054;52.054;8.600;2022-12-29T16:33:35;16.40;59.30
51029;DHT22;37054;52.054;8.600;2022-12-29T16:36:02;16.40;59.90
51029;DHT22;37054;52.054;8.600;2022-12-29T16:38:31;16.40;60.10
51029;DHT22;37054;52.054;8.600;2022-12-29T16:40:58;16.40;60.50
51029;DHT22;37054;52.054;8.600;2022-12-29T16:43:31;16.50;60.00
51029;DHT22;37054;52.054;8.600;2022-12-29T16:48:30;16.40;59.90
51029;DHT22;37054;52.054;8.600;2022-12-29T16:51:01;16.40;60.10
51029;DHT22;37054;52.054;8.600;2022-12-29T16:53:29;16.40;60.20
51029;DHT22;37054;52.054;8.600;2022-12-29T16:55:57;16.30;59.60
51029;DHT22;37054;52.054;8.600;2022-12-29T16:58:24;16.10;59.30
51029;DHT22;37054;52.054;8.600;2022-12-29T17:00:54;16.00;59.60
51029;DHT22;37054;52.054;8.600;2022-12-29T17:03:21;15.80;59.20
51029;DHT22;37054;52.054;8.600;2022-12-29T17:05:47;15.80;59.40
51029;DHT22;37054;52.054;8.600;2022-12-29T17:08:19;15.80;59.30
51029;DHT22;37054;52.054;8.600;2022-12-29T17:10:49;15.60;58.30
51029;DHT22;37054;52.054;8.600;2022-12-29T17:13:40;15.70;59.10
51029;DHT22;37054;52.054;8.600;2022-12-29T17:16:06;15.70;59.10
51029;DHT22;37054;52.054;8.600;2022-12-29T17:18:33;15.80;59.30
51029;DHT22;37054;52.054;8.600;2022-12-29T17:20:58;15.80;59.90
51029;DHT22;37054;52.054;8.600;2022-12-29T17:23:24;15.70;60.30
51029;DHT22;37054;52.054;8.600;2022-12-29T17:25:49;15.50;60.70
51029;DHT22;37054;52.054;8.600;2022-12-29T17:28:18;15.40;61.30
51029;DHT22;37054;52.054;8.600;2022-12-29T17:30:45;15.30;61.50
51029;DHT22;37054;52.054;8.600;2022-12-29T17:33:12;15.20;61.90
51029;DHT22;37054;52.054;8.600;2022-12-29T17:35:38;15.00;62.40